createdAt,value
2023-02-01T00:00:04.181Z,93982.00
2023-02-01T00:04:47.054Z,94002.00
2023-02-01T00:08:58.878Z,93981.00
2023-02-01T00:13:03.897Z,93980.00
2023-02-01T00:17:09.116Z,93977.00
2023-02-01T00:21:13.813Z,93985.00
2023-02-01T00:26:10.600Z,93997.00
2023-02-01T00:30:25.782Z,93939.00
2023-02-01T00:34:31.377Z,93984.00
2023-02-01T00:39:02.095Z,93976.00
2023-02-01T00:43:09.474Z,93956.00
2023-02-01T00:47:16.675Z,93949.00
2023-02-01T00:51:25.051Z,93979.00
2023-02-01T00:55:30.228Z,93966.00
2023-02-01T00:59:57.102Z,93978.00
2023-02-01T01:04:25.625Z,93946.00
2023-02-01T01:08:30.179Z,93976.00
2023-02-01T01:22:58.905Z,93949.00
2023-02-01T01:27:04.481Z,93978.00
2023-02-01T01:31:11.824Z,93946.00
2023-02-01T01:35:17.405Z,93945.00
2023-02-01T01:39:24.734Z,93961.00
2023-02-01T01:44:01.738Z,93945.00
2023-02-01T01:48:38.846Z,93926.00
2023-02-01T01:52:57.472Z,93944.00
2023-02-01T01:57:23.389Z,93943.00
2023-02-01T02:01:45.759Z,93919.00
2023-02-01T02:06:06.330Z,93955.00
2023-02-01T02:10:18.437Z,93971.00
2023-02-01T02:14:34.318Z,93937.00
2023-02-01T02:19:20.153Z,93966.00
2023-02-01T02:29:44.835Z,93956.00
2023-02-01T02:34:18.137Z,93993.00
2023-02-01T02:48:30.410Z,94005.00
2023-02-01T02:57:44.832Z,93999.00
2023-02-01T03:02:06.720Z,94002.00
2023-02-01T03:10:57.690Z,93984.00
2023-02-01T03:15:16.732Z,93996.00
2023-02-01T03:19:26.038Z,93978.00
2023-02-01T03:23:33.574Z,93993.00
2023-02-01T03:27:53.743Z,94006.00
2023-02-01T03:31:57.703Z,93987.00
2023-02-01T03:36:30.339Z,93985.00
2023-02-01T03:40:38.883Z,93987.00
2023-02-01T03:44:54.133Z,93995.00
2023-02-01T03:48:58.263Z,93976.00
2023-02-01T03:54:07.075Z,93986.00
2023-02-01T03:58:14.938Z,93956.00
2023-02-01T04:02:20.824Z,93980.00
2023-02-01T04:06:24.270Z,93949.00
2023-02-01T04:16:10.665Z,93967.00
2023-02-01T04:20:15.439Z,93968.00
2023-02-01T04:24:21.914Z,93962.00
2023-02-01T04:28:25.192Z,93959.00
2023-02-01T04:32:28.559Z,93958.00
2023-02-01T04:36:33.741Z,93943.00
2023-02-01T04:40:45.277Z,93946.00
2023-02-01T04:44:48.885Z,93946.00
2023-02-01T04:48:52.434Z,93932.00
2023-02-01T04:52:57.203Z,93928.00
2023-02-01T04:57:53.745Z,93922.00
2023-02-01T05:01:57.060Z,93934.00
2023-02-01T05:06:29.229Z,93949.00
2023-02-01T05:10:34.051Z,93933.00
2023-02-01T05:14:40.586Z,93895.00
2023-02-01T05:18:48.494Z,93906.00
2023-02-01T05:22:52.009Z,93929.00
2023-02-01T05:28:03.821Z,93920.00
2023-02-01T05:32:21.680Z,93957.00
2023-02-01T05:36:28.965Z,93958.00
2023-02-01T05:40:50.688Z,93964.00
2023-02-01T05:44:54.160Z,93960.00
2023-02-01T05:49:26.581Z,93954.00
2023-02-01T05:53:29.978Z,93925.00
2023-02-01T05:57:33.470Z,93938.00
2023-02-01T06:01:36.870Z,93892.00
2023-02-01T06:05:45.941Z,93911.00
2023-02-01T06:09:49.284Z,93921.00
2023-02-01T06:14:00.228Z,93910.00
2023-02-01T06:19:03.845Z,93907.00
2023-02-01T06:23:08.614Z,93891.00
2023-02-01T06:27:16.389Z,93906.00
2023-02-01T06:31:19.807Z,93891.00
2023-02-01T06:35:50.987Z,93923.00
2023-02-01T06:39:55.793Z,93925.00
2023-02-01T06:44:03.460Z,93941.00
2023-02-01T06:48:07.447Z,93901.00
2023-02-01T06:52:10.919Z,93936.00
2023-02-01T06:56:15.749Z,93947.00
2023-02-01T07:00:24.539Z,93946.00
2023-02-01T07:04:28.087Z,93963.00
2023-02-01T07:08:33.811Z,93970.00
2023-02-01T07:12:38.718Z,93964.00
2023-02-01T07:16:42.023Z,93983.00
2023-02-01T07:21:13.475Z,93973.00
2023-02-01T07:25:17.011Z,93967.00
2023-02-01T07:29:23.975Z,93939.00
2023-02-01T07:33:28.212Z,93928.00
2023-02-01T07:37:33.956Z,93944.00
2023-02-01T07:41:37.310Z,93934.00
2023-02-01T07:45:44.264Z,93943.00
2023-02-01T07:49:47.926Z,93903.00
2023-02-01T07:53:54.734Z,93905.00
2023-02-01T07:58:01.296Z,93895.00
2023-02-01T08:02:08.679Z,93883.00
2023-02-01T08:06:12.314Z,93874.00
2023-02-01T08:10:33.141Z,93880.00
2023-02-01T08:14:36.533Z,93900.00
2023-02-01T08:18:42.329Z,93872.00
2023-02-01T08:22:49.529Z,93888.00
2023-02-01T08:26:53.034Z,93868.00
2023-02-01T08:30:57.752Z,93843.00
2023-02-01T08:35:02.790Z,93866.00
2023-02-01T08:39:12.624Z,93875.00
2023-02-01T08:43:16.423Z,93867.00
2023-02-01T08:47:20.214Z,93847.00
2023-02-01T08:51:25.836Z,93846.00
2023-02-01T08:55:30.415Z,93863.00
2023-02-01T08:59:34.088Z,93846.00
2023-02-01T09:03:38.344Z,93848.00
2023-02-01T09:07:43.437Z,93854.00
2023-02-01T09:11:49.153Z,93855.00
2023-02-01T09:15:53.499Z,93851.00
2023-02-01T09:19:57.170Z,93863.00
2023-02-01T09:24:02.369Z,93854.00
2023-02-01T09:28:07.248Z,93844.00
2023-02-01T09:32:17.197Z,93837.00
2023-02-01T09:36:21.029Z,93852.00
2023-02-01T09:41:06.797Z,93853.00
2023-02-01T09:45:25.162Z,93864.00
2023-02-01T09:49:31.886Z,93843.00
2023-02-01T09:53:38.856Z,93875.00
2023-02-01T10:03:26.895Z,93861.00
2023-02-01T10:13:37.870Z,93854.00
2023-02-01T10:18:17.062Z,93811.00
2023-02-01T10:23:10.343Z,93818.00
2023-02-01T10:27:16.058Z,93860.00
2023-02-01T10:31:20.636Z,93859.00
2023-02-01T10:39:50.139Z,93817.00
2023-02-01T10:44:02.841Z,93840.00
2023-02-01T10:48:07.350Z,93849.00
2023-02-01T10:52:17.783Z,93866.00
2023-02-01T10:56:45.393Z,93841.00
2023-02-01T11:00:51.537Z,93838.00
2023-02-01T11:05:17.431Z,93851.00
2023-02-01T11:09:25.523Z,93855.00
2023-02-01T11:13:37.056Z,93858.00
2023-02-01T11:17:45.086Z,93851.00
2023-02-01T11:21:53.390Z,93855.00
2023-02-01T11:25:59.095Z,93843.00
2023-02-01T11:30:37.163Z,93870.00
2023-02-01T11:34:44.098Z,93888.00
2023-02-01T11:38:55.338Z,93885.00
2023-02-01T11:43:01.094Z,93880.00
2023-02-01T11:47:30.777Z,93873.00
2023-02-01T11:52:16.651Z,93852.00
2023-02-01T11:56:28.835Z,93854.00
2023-02-01T12:01:04.321Z,93839.00
2023-02-01T12:05:39.675Z,93847.00
2023-02-01T12:10:15.439Z,93862.00
2023-02-01T12:15:13.562Z,93834.00
2023-02-01T12:19:46.185Z,93810.00
2023-02-01T12:24:41.516Z,93829.00
2023-02-01T12:29:03.686Z,93833.00
2023-02-01T12:33:33.060Z,93825.00
2023-02-01T12:37:59.805Z,93814.00
2023-02-01T12:42:13.024Z,93825.00
2023-02-01T12:46:30.967Z,93824.00
2023-02-01T12:50:48.239Z,93824.00
2023-02-01T12:55:05.101Z,93821.00
2023-02-01T12:59:18.981Z,93814.00
2023-02-01T13:03:36.603Z,93809.00
2023-02-01T13:07:43.276Z,93808.00
2023-02-01T13:11:51.668Z,93776.00
2023-02-01T13:16:14.310Z,93771.00
2023-02-01T13:20:47.297Z,93784.00
2023-02-01T13:24:54.647Z,93780.00
2023-02-01T13:29:17.967Z,93799.00
2023-02-01T13:33:53.932Z,93807.00
2023-02-01T13:38:25.018Z,93799.00
2023-02-01T13:42:31.188Z,93806.00
2023-02-01T13:46:43.679Z,93812.00
2023-02-01T13:51:00.944Z,93795.00
2023-02-01T13:55:28.997Z,93796.00
2023-02-01T13:59:53.684Z,93788.00
2023-02-01T14:03:59.211Z,93772.00
2023-02-01T14:08:12.226Z,93802.00
2023-02-01T14:12:54.901Z,93796.00
2023-02-01T14:17:41.083Z,93807.00
2023-02-01T14:21:57.915Z,93811.00
2023-02-01T14:26:08.707Z,93804.00
2023-02-01T14:30:18.450Z,93812.00
2023-02-01T14:34:27.329Z,93811.00
2023-02-01T14:38:36.725Z,93810.00
2023-02-01T14:42:45.826Z,93810.00
2023-02-01T14:47:33.079Z,93799.00
2023-02-01T14:51:37.780Z,93772.00
2023-02-01T14:56:32.439Z,93791.00
2023-02-01T15:00:37.498Z,93794.00
2023-02-01T15:04:44.209Z,93793.00
2023-02-01T15:08:48.061Z,93792.00
2023-02-01T15:12:51.620Z,93808.00
2023-02-01T15:16:56.405Z,93805.00
2023-02-01T15:21:09.375Z,93808.00
2023-02-01T15:25:49.138Z,93816.00
2023-02-01T15:30:44.603Z,93812.00
2023-02-01T15:34:50.951Z,93826.00
2023-02-01T15:39:21.149Z,93821.00
2023-02-01T15:44:06.903Z,93834.00
2023-02-01T15:48:24.432Z,93832.00
2023-02-01T15:52:41.742Z,93837.00
2023-02-01T15:56:45.153Z,93809.00
2023-02-01T16:00:55.685Z,93818.00
2023-02-01T16:04:59.608Z,93844.00
2023-02-01T16:09:12.868Z,93855.00
2023-02-01T16:13:17.656Z,93852.00
2023-02-01T16:17:21.112Z,93876.00
2023-02-01T16:21:24.453Z,93863.00
2023-02-01T16:25:29.280Z,93887.00
2023-02-01T16:29:32.540Z,93888.00
2023-02-01T16:33:37.449Z,93871.00
2023-02-01T16:37:40.748Z,93853.00
2023-02-01T16:41:52.957Z,93854.00
2023-02-01T16:46:01.178Z,93847.00
2023-02-01T16:50:23.681Z,93846.00
2023-02-01T16:54:39.905Z,93839.00
2023-02-01T16:58:45.128Z,93843.00
2023-02-01T17:02:48.436Z,93849.00
2023-02-01T17:07:07.302Z,93833.00
2023-02-01T17:11:13.002Z,93832.00
2023-02-01T17:15:18.109Z,93845.00
2023-02-01T17:19:26.353Z,93836.00
2023-02-01T17:23:31.224Z,93805.00
2023-02-01T17:27:45.436Z,93807.00
2023-02-01T17:31:52.383Z,93830.00
2023-02-01T17:36:01.574Z,93819.00
2023-02-01T17:40:05.414Z,93819.00
2023-02-01T17:44:11.952Z,93820.00
2023-02-01T17:48:17.164Z,93834.00
2023-02-01T17:52:20.686Z,93853.00
2023-02-01T17:56:25.626Z,93853.00
2023-02-01T18:01:18.751Z,93845.00
2023-02-01T18:09:50.416Z,93852.00
2023-02-01T18:14:19.893Z,93826.00
2023-02-01T18:19:02.000Z,93796.00
2023-02-01T18:23:06.943Z,93784.00
2023-02-01T18:27:16.523Z,93789.00
2023-02-01T18:31:23.717Z,93802.00
2023-02-01T18:35:39.335Z,93782.00
2023-02-01T18:39:44.071Z,93782.00
2023-02-01T18:43:57.532Z,93771.00
2023-02-01T18:48:01.282Z,93768.00
2023-02-01T18:52:06.642Z,93763.00
2023-02-01T18:56:13.237Z,93786.00
2023-02-01T19:00:33.022Z,93765.00
2023-02-01T19:04:36.368Z,93777.00
2023-02-01T19:08:41.977Z,93768.00
2023-02-01T19:12:46.932Z,93760.00
2023-02-01T19:16:51.656Z,93757.00
2023-02-01T19:20:55.143Z,93731.00
2023-02-01T19:24:59.109Z,93750.00
2023-02-01T19:29:04.522Z,93748.00
2023-02-01T19:33:13.104Z,93742.00
2023-02-01T19:37:16.374Z,93743.00
2023-02-01T19:41:21.270Z,93746.00
2023-02-01T19:45:26.395Z,93756.00
2023-02-01T19:49:54.181Z,93738.00
2023-02-01T19:53:57.666Z,93728.00
2023-02-01T19:58:02.550Z,93756.00
2023-02-01T20:02:06.403Z,93724.00
2023-02-01T20:06:39.235Z,93713.00
2023-02-01T20:10:44.843Z,93721.00
2023-02-01T20:15:03.961Z,93722.00
2023-02-01T20:19:10.877Z,93728.00
2023-02-01T20:23:14.194Z,93723.00
2023-02-01T20:27:18.446Z,93712.00
2023-02-01T20:31:25.891Z,93705.00
2023-02-01T20:35:30.611Z,93706.00
2023-02-01T20:39:38.087Z,93706.00
2023-02-01T20:43:41.375Z,93720.00
2023-02-01T20:47:44.913Z,93680.00
2023-02-01T20:51:49.577Z,93713.00
2023-02-01T20:55:59.743Z,93681.00
2023-02-01T21:00:03.452Z,93701.00
2023-02-01T21:04:29.643Z,93707.00
2023-02-01T21:08:35.089Z,93711.00
2023-02-01T21:12:40.673Z,93696.00
2023-02-01T21:16:44.165Z,93671.00
2023-02-01T21:20:48.020Z,93699.00
2023-02-01T21:25:43.555Z,93683.00
2023-02-01T21:29:48.314Z,93664.00
2023-02-01T21:33:54.003Z,93670.00
2023-02-01T21:38:20.874Z,93658.00
2023-02-01T21:42:46.465Z,93679.00
2023-02-01T21:46:51.956Z,93655.00
2023-02-01T21:50:57.138Z,93686.00
2023-02-01T21:55:01.105Z,93650.00
2023-02-01T21:59:05.616Z,93666.00
2023-02-01T22:03:11.417Z,93667.00
2023-02-01T22:07:19.781Z,93663.00
2023-02-01T22:11:40.590Z,93648.00
2023-02-01T22:15:49.376Z,93653.00
2023-02-01T22:19:54.954Z,93638.00
2023-02-01T22:24:01.466Z,93702.00
2023-02-01T22:28:31.034Z,93693.00
2023-02-01T22:32:50.662Z,93668.00
2023-02-01T22:36:56.571Z,93708.00
2023-02-01T22:41:05.915Z,93698.00
